Time;durP1;ratioP1;P1;durP2;ratioP2;P2;SDS_P1;SDS_P2;PMS_P1;PMS_P2;Temp;Humidity;BMP_temperature;BMP_pressure;BME280_temperature;BME280_humidity;BME280_pressure;Samples;Min_cycle;Max_cycle;Signal;HPM_P1;HPM_P2
2023/12/03 00:03:43;;;;;;;6.13;3.83;;;;;-2.90;96342.00;;;;8398543;28;20639;-69
2023/12/03 00:07:46;;;;;;;5.33;3.97;;;;;-3.00;96351.00;;;;8399424;28;20196;-69
2023/12/03 00:11:51;;;;;;;6.87;4.27;;;;;-3.00;96347.00;;;;8398205;28;20203;-69
2023/12/03 00:15:58;;;;;;;5.73;4.30;;;;;-3.00;96357.00;;;;8398590;28;20195;-69
2023/12/03 00:20:03;;;;;;;8.13;4.80;;;;;-3.00;96362.00;;;;8398681;28;20678;-69
2023/12/03 00:24:06;;;;;;;5.37;3.97;;;;;-3.00;96350.00;;;;8398130;28;20204;-69
2023/12/03 00:28:10;;;;;;;6.70;4.37;;;;;-3.00;96358.00;;;;8398038;28;20195;-69
2023/12/03 00:32:13;;;;;;;6.63;4.00;;;;;-3.10;96356.00;;;;8398743;28;20220;-69
2023/12/03 00:36:18;;;;;;;3.47;3.00;;;;;-3.00;96365.00;;;;8397459;28;20196;-69
2023/12/03 00:40:21;;;;;;;3.20;2.90;;;;;-3.10;96365.00;;;;8397972;28;20720;-70
2023/12/03 00:44:24;;;;;;;3.87;3.13;;;;;-3.10;96370.00;;;;8397794;28;20212;-69
2023/12/03 00:48:27;;;;;;;3.67;3.20;;;;;-3.10;96376.00;;;;8397198;28;20207;-70
2023/12/03 00:52:32;;;;;;;4.43;2.90;;;;;-3.00;96382.00;;;;8398618;28;20196;-70
2023/12/03 00:56:35;;;;;;;4.37;3.03;;;;;-3.00;96384.00;;;;8404855;28;20192;-70
2023/12/03 01:00:38;;;;;;;5.43;3.93;;;;;-3.00;96384.00;;;;8403858;28;20282;-70
2023/12/03 01:04:42;;;;;;;4.60;2.77;;;;;-2.90;96390.00;;;;8404145;28;20296;-70
2023/12/03 01:08:46;;;;;;;4.03;2.93;;;;;-2.90;96401.00;;;;8404049;28;20522;-70
2023/12/03 01:12:51;;;;;;;3.60;2.67;;;;;-2.90;96411.00;;;;8403659;28;20215;-70
2023/12/03 01:16:54;;;;;;;4.63;3.67;;;;;-2.80;96417.00;;;;8403406;28;20227;-70
2023/12/03 01:20:57;;;;;;;4.27;3.30;;;;;-2.80;96424.00;;;;8402838;28;20227;-70
2023/12/03 01:25:01;;;;;;;8.13;4.40;;;;;-2.70;96434.00;;;;8403009;28;20255;-70
2023/12/03 01:29:05;;;;;;;6.87;4.40;;;;;-2.50;96442.00;;;;8402135;28;20245;-71
2023/12/03 01:33:08;;;;;;;6.03;4.37;;;;;-2.40;96446.00;;;;8403348;28;20215;-71
2023/12/03 01:37:11;;;;;;;13.83;5.40;;;;;-2.30;96459.00;;;;8398933;28;20199;-70
2023/12/03 01:41:16;;;;;;;6.50;4.53;;;;;-2.30;96462.00;;;;8402433;28;20191;-70
2023/12/03 01:45:19;;;;;;;9.20;5.40;;;;;-2.30;96466.00;;;;8401923;28;20259;-70
2023/12/03 01:49:22;;;;;;;8.37;4.93;;;;;-2.30;96473.00;;;;8402313;28;20199;-70
2023/12/03 01:53:27;;;;;;;7.40;4.60;;;;;-2.30;96477.00;;;;8401405;28;20192;-71
2023/12/03 01:57:32;;;;;;;8.03;4.90;;;;;-2.30;96479.00;;;;8403122;28;20229;-71
2023/12/03 02:01:35;;;;;;;9.83;5.70;;;;;-2.30;96475.00;;;;8402258;28;20184;-71
2023/12/03 02:05:39;;;;;;;9.33;5.77;;;;;-2.20;96489.00;;;;8400371;28;20222;-71
2023/12/03 02:09:42;;;;;;;9.80;5.43;;;;;-2.20;96486.00;;;;8400187;28;20621;-71
2023/12/03 02:13:48;;;;;;;12.17;5.90;;;;;-2.20;96495.00;;;;8403118;28;20241;-71
2023/12/03 02:17:52;;;;;;;9.13;4.73;;;;;-2.20;96487.00;;;;8400463;28;20199;-70
2023/12/03 02:21:55;;;;;;;2.07;1.93;;;;;-2.20;96484.00;;;;8403094;28;20525;-70
2023/12/03 02:26:00;;;;;;;9.97;5.67;;;;;-2.30;96500.00;;;;8400252;28;20310;-71
2023/12/03 02:30:03;;;;;;;9.77;5.53;;;;;-2.30;96484.00;;;;8401251;28;20220;-71
2023/12/03 02:34:09;;;;;;;10.23;6.20;;;;;-2.30;96485.00;;;;8399521;28;20232;-72
2023/12/03 02:38:13;;;;;;;3.27;3.00;;;;;-2.20;96489.00;;;;8401419;28;20223;-71
2023/12/03 02:42:17;;;;;;;12.40;6.37;;;;;-2.30;96489.00;;;;8400164;28;20228;-71
2023/12/03 02:46:20;;;;;;;11.63;6.93;;;;;-2.30;96492.00;;;;8400052;28;20534;-71
2023/12/03 02:50:24;;;;;;;8.80;5.50;;;;;-2.20;96494.00;;;;8400799;28;20529;-70
2023/12/03 02:54:27;;;;;;;12.07;6.47;;;;;-2.20;96499.00;;;;8401155;28;20283;-70
2023/12/03 02:58:31;;;;;;;13.83;7.50;;;;;-2.10;96511.00;;;;8400335;28;20189;-70
2023/12/03 03:02:34;;;;;;;13.80;7.30;;;;;-2.00;96507.00;;;;8420661;22;20285;-72
2023/12/03 03:06:37;;;;;;;13.33;6.57;;;;;-2.00;96511.00;;;;8397150;28;20329;-71
2023/12/03 03:10:41;;;;;;;11.97;7.13;;;;;-2.00;96524.00;;;;8397518;28;20202;-71
2023/12/03 03:14:45;;;;;;;14.17;7.33;;;;;-1.90;96521.00;;;;8396754;28;20203;-72
2023/12/03 03:18:49;;;;;;;11.30;6.53;;;;;-1.90;96526.00;;;;8396873;28;20245;-73
2023/12/03 03:22:53;;;;;;;13.73;7.63;;;;;-1.90;96533.00;;;;8396614;28;20227;-72
2023/12/03 03:26:56;;;;;;;12.70;7.47;;;;;-1.90;96537.00;;;;8394364;28;20760;-71
2023/12/03 03:31:00;;;;;;;14.60;7.73;;;;;-1.90;96540.00;;;;8397148;28;20211;-72
2023/12/03 03:35:03;;;;;;;13.60;7.63;;;;;-1.90;96545.00;;;;8394905;28;20264;-72
2023/12/03 03:39:06;;;;;;;15.17;7.47;;;;;-1.90;96550.00;;;;8396710;28;20282;-72
2023/12/03 03:43:09;;;;;;;14.63;8.10;;;;;-1.90;96560.00;;;;8396225;28;20760;-72
2023/12/03 03:47:14;;;;;;;15.93;8.00;;;;;-1.90;96556.00;;;;8397020;28;20341;-72
2023/12/03 03:51:17;;;;;;;15.57;8.57;;;;;-1.90;96554.00;;;;8395372;28;20306;-71
2023/12/03 03:55:21;;;;;;;16.93;8.60;;;;;-1.90;96556.00;;;;8396538;28;20207;-71
2023/12/03 03:59:24;;;;;;;15.10;8.13;;;;;-1.90;96557.00;;;;8393506;28;20226;-74
2023/12/03 04:03:28;;;;;;;15.80;9.17;;;;;-2.00;96559.00;;;;8376940;28;20314;-72
2023/12/03 04:07:32;;;;;;;14.10;6.83;;;;;-2.00;96565.00;;;;8362998;28;20224;-71
2023/12/03 04:11:39;;;;;;;11.37;6.30;;;;;-2.00;96571.00;;;;8363954;28;20211;-72
2023/12/03 04:15:43;;;;;;;15.77;6.30;;;;;-2.10;96568.00;;;;8360725;28;20735;-73
2023/12/03 04:19:47;;;;;;;16.77;8.20;;;;;-2.20;96574.00;;;;8361051;28;20720;-72
2023/12/03 04:23:50;;;;;;;11.97;6.13;;;;;-2.20;96583.00;;;;8361102;28;20196;-73
2023/12/03 04:27:53;;;;;;;11.00;6.10;;;;;-2.20;96565.00;;;;8362470;28;20307;-73
2023/12/03 04:31:56;;;;;;;11.77;5.80;;;;;-2.30;96565.00;;;;8362851;28;20202;-71
2023/12/03 04:36:01;;;;;;;11.60;6.80;;;;;-2.30;96565.00;;;;8362426;28;20212;-70
2023/12/03 04:40:05;;;;;;;15.50;9.10;;;;;-2.20;96583.00;;;;8361262;28;20959;-73
2023/12/03 04:44:08;;;;;;;11.43;5.83;;;;;-2.10;96597.00;;;;8362522;28;20305;-74
2023/12/03 04:48:11;;;;;;;14.80;7.57;;;;;-2.20;96590.00;;;;8360458;28;20235;-74
2023/12/03 04:52:16;;;;;;;13.23;6.37;;;;;-2.30;96595.00;;;;8359133;28;20603;-72
2023/12/03 04:56:19;;;;;;;18.17;8.00;;;;;-2.20;96591.00;;;;8360671;28;20705;-73
2023/12/03 05:00:22;;;;;;;15.30;7.50;;;;;-2.20;96600.00;;;;8360977;28;20283;-73
2023/12/03 05:04:26;;;;;;;15.40;8.23;;;;;-2.10;96605.00;;;;8359398;28;20252;-73
2023/12/03 05:08:31;;;;;;;14.53;7.87;;;;;-2.10;96598.00;;;;8360683;28;21157;-73
2023/12/03 05:12:34;;;;;;;17.03;8.67;;;;;-2.00;96598.00;;;;8362718;28;20910;-73
2023/12/03 05:16:38;;;;;;;21.60;9.00;;;;;-2.10;96604.00;;;;8355224;28;20206;-75
2023/12/03 05:20:41;;;;;;;13.40;7.57;;;;;-2.10;96590.00;;;;8362297;28;20208;-74
2023/12/03 05:24:46;;;;;;;16.73;8.77;;;;;-2.00;96597.00;;;;8359887;28;20239;-73
2023/12/03 05:28:49;;;;;;;15.57;8.60;;;;;-2.00;96612.00;;;;8363262;28;20868;-74
2023/12/03 05:32:52;;;;;;;16.33;8.87;;;;;-1.90;96615.00;;;;8360298;28;20300;-74
2023/12/03 05:36:55;;;;;;;15.03;8.13;;;;;-1.90;96616.00;;;;8361498;28;20208;-75
2023/12/03 05:40:59;;;;;;;14.00;7.90;;;;;-1.90;96614.00;;;;8362537;28;20709;-74
2023/12/03 05:45:03;;;;;;;14.50;8.07;;;;;-1.90;96613.00;;;;8367503;28;20311;-74
2023/12/03 05:49:08;;;;;;;15.93;8.63;;;;;-2.00;96616.00;;;;8362738;28;20228;-74
2023/12/03 05:53:11;;;;;;;15.27;8.20;;;;;-2.00;96619.00;;;;8366546;28;20243;-74
2023/12/03 05:57:16;;;;;;;14.40;7.70;;;;;-2.10;96620.00;;;;8363920;28;20291;-75
2023/12/03 06:01:23;;;;;;;14.37;7.47;;;;;-2.10;96620.00;;;;8365384;28;20339;-74
2023/12/03 06:05:26;;;;;;;13.73;7.40;;;;;-2.20;96622.00;;;;8365520;28;20196;-76
2023/12/03 06:09:29;;;;;;;14.20;8.30;;;;;-2.20;96623.00;;;;8366162;28;20208;-74
2023/12/03 06:13:33;;;;;;;16.80;8.00;;;;;-2.30;96630.00;;;;8365840;28;20208;-76
2023/12/03 06:17:36;;;;;;;15.80;7.80;;;;;-2.30;96626.00;;;;8365348;28;20614;-77
2023/12/03 06:21:40;;;;;;;13.90;7.87;;;;;-2.40;96631.00;;;;8366560;28;20693;-74
2023/12/03 06:25:43;;;;;;;12.27;6.87;;;;;-2.50;96634.00;;;;8363662;28;20204;-74
2023/12/03 06:29:48;;;;;;;13.83;7.10;;;;;-2.90;96637.00;;;;8361710;28;20208;-74
2023/12/03 06:33:51;;;;;;;14.63;7.43;;;;;-3.20;96649.00;;;;8363525;28;20196;-73
2023/12/03 06:37:54;;;;;;;13.37;7.43;;;;;-3.30;96654.00;;;;8365315;28;20200;-75
2023/12/03 06:41:57;;;;;;;12.33;6.63;;;;;-3.60;96659.00;;;;8365154;28;20319;-73
2023/12/03 06:46:01;;;;;;;13.97;7.17;;;;;-3.80;96669.00;;;;8365416;28;20283;-74
2023/12/03 06:50:06;;;;;;;13.60;6.60;;;;;-4.00;96670.00;;;;8363549;28;20292;-76
2023/12/03 06:54:09;;;;;;;15.40;7.13;;;;;-4.20;96668.00;;;;8363524;28;20196;-77
2023/12/03 06:58:12;;;;;;;14.73;7.30;;;;;-4.40;96677.00;;;;8363652;28;20207;-78
2023/12/03 07:02:17;;;;;;;7.97;4.80;;;;;-4.40;96684.00;;;;8359726;28;20234;-76
2023/12/03 07:06:20;;;;;;;15.63;8.30;;;;;-4.50;96684.00;;;;8363238;28;20229;-74
2023/12/03 07:10:24;;;;;;;14.13;6.53;;;;;-4.40;96684.00;;;;8363633;28;20222;-75
2023/12/03 07:14:27;;;;;;;5.30;4.10;;;;;-4.30;96678.00;;;;8364559;28;20223;-74
2023/12/03 07:18:31;;;;;;;13.77;6.87;;;;;-4.20;96690.00;;;;8363457;28;20224;-74
2023/12/03 07:22:35;;;;;;;14.87;8.07;;;;;-4.00;96697.00;;;;8362851;28;20200;-74
2023/12/03 07:26:38;;;;;;;15.47;8.93;;;;;-3.80;96696.00;;;;8317446;28;21141;-73
2023/12/03 07:30:41;;;;;;;17.13;8.87;;;;;-3.80;96705.00;;;;8297232;28;20198;-75
2023/12/03 07:34:46;;;;;;;23.03;8.97;;;;;-3.60;96713.00;;;;8297268;28;20213;-73
2023/12/03 07:38:49;;;;;;;19.50;10.00;;;;;-3.60;96725.00;;;;8297217;28;20241;-76
2023/12/03 07:42:52;;;;;;;19.37;9.17;;;;;-3.50;96726.00;;;;8297643;28;20659;-71
2023/12/03 07:46:55;;;;;;;19.67;9.13;;;;;-3.50;96735.00;;;;8298046;28;20285;-70
2023/12/03 07:51:00;;;;;;;17.83;8.63;;;;;-3.40;96745.00;;;;8294579;28;20313;-71
2023/12/03 07:55:03;;;;;;;18.13;9.10;;;;;-3.50;96743.00;;;;8298462;28;20285;-72
2023/12/03 07:59:07;;;;;;;17.77;7.60;;;;;-3.50;96740.00;;;;8296736;28;20728;-71
2023/12/03 08:03:10;;;;;;;19.80;9.23;;;;;-3.30;96745.00;;;;8312818;28;20304;-71
2023/12/03 08:07:15;;;;;;;21.70;9.37;;;;;-3.20;96750.00;;;;8328280;28;20229;-73
2023/12/03 08:11:18;;;;;;;18.40;9.13;;;;;-3.00;96756.00;;;;8326619;28;20207;-72
2023/12/03 08:15:21;;;;;;;24.43;10.47;;;;;-2.90;96748.00;;;;8330126;28;20208;-73
2023/12/03 08:19:24;;;;;;;19.90;9.90;;;;;-2.90;96753.00;;;;8328176;28;20197;-72
2023/12/03 08:23:29;;;;;;;13.63;8.37;;;;;-3.00;96749.00;;;;8328043;28;20771;-72
2023/12/03 08:27:32;;;;;;;14.23;7.47;;;;;-3.00;96760.00;;;;8331160;28;20231;-72
2023/12/03 08:31:35;;;;;;;20.90;8.70;;;;;-3.00;96765.00;;;;8326690;28;20205;-71
2023/12/03 08:35:38;;;;;;;17.93;7.73;;;;;-2.90;96764.00;;;;8329855;28;20299;-74
2023/12/03 08:39:43;;;;;;;15.47;8.33;;;;;-2.90;96763.00;;;;8325529;28;20197;-71
2023/12/03 08:43:46;;;;;;;17.50;7.93;;;;;-2.80;96765.00;;;;8341100;28;20196;-71
2023/12/03 08:47:49;;;;;;;15.47;7.90;;;;;-2.70;96769.00;;;;8330672;28;20224;-71
2023/12/03 08:51:53;;;;;;;22.40;10.03;;;;;-2.60;96765.00;;;;8332146;28;20983;-72
2023/12/03 08:55:59;;;;;;;18.83;9.20;;;;;-2.50;96780.00;;;;8336277;28;20787;-74
2023/12/03 09:00:04;;;;;;;19.70;9.67;;;;;-2.40;96781.00;;;;8337327;28;20596;-73
2023/12/03 09:04:07;;;;;;;11.33;5.80;;;;;-2.30;96778.00;;;;8334835;28;20248;-73
2023/12/03 09:08:10;;;;;;;18.73;9.23;;;;;-2.30;96777.00;;;;8342904;28;20640;-71
2023/12/03 09:12:17;;;;;;;21.20;10.33;;;;;-2.20;96781.00;;;;8337556;28;20200;-73
2023/12/03 09:16:20;;;;;;;18.00;9.80;;;;;-2.10;96785.00;;;;8341585;28;20229;-72
2023/12/03 09:20:24;;;;;;;13.77;7.33;;;;;-2.00;96789.00;;;;8342467;28;20205;-78
2023/12/03 09:24:27;;;;;;;20.67;8.97;;;;;-1.90;96788.00;;;;8345944;28;20200;-72
2023/12/03 09:28:32;;;;;;;20.43;10.33;;;;;-1.80;96788.00;;;;8345953;28;20713;-71
2023/12/03 09:32:35;;;;;;;20.67;10.43;;;;;-1.80;96797.00;;;;8343924;28;20287;-72
2023/12/03 09:36:39;;;;;;;15.97;8.17;;;;;-1.60;96796.00;;;;8345315;28;20223;-75
2023/12/03 09:40:42;;;;;;;22.60;10.43;;;;;-1.50;96804.00;;;;8344469;28;20711;-76
2023/12/03 09:44:51;;;;;;;30.07;14.87;;;;;-1.50;96802.00;;;;8348262;28;20300;-73
2023/12/03 09:49:01;;;;;;;23.07;11.33;;;;;-1.40;96795.00;;;;8346426;28;20901;-75
2023/12/03 09:53:11;;;;;;;18.77;8.90;;;;;-1.30;96802.00;;;;8347610;28;20212;-76
2023/12/03 09:57:15;;;;;;;21.23;10.10;;;;;-1.20;96814.00;;;;8344954;28;20232;-81
2023/12/03 10:01:24;;;;;;;20.23;9.83;;;;;-1.10;96811.00;;;;8338901;28;20617;-79
2023/12/03 10:05:27;;;;;;;23.00;10.20;;;;;-1.10;96815.00;;;;8343289;28;20221;-77
2023/12/03 10:09:31;;;;;;;10.43;6.17;;;;;-1.00;96808.00;;;;8342915;28;20228;-75
2023/12/03 10:13:36;;;;;;;23.13;10.20;;;;;-1.20;96800.00;;;;8342352;28;20209;-76
2023/12/03 10:17:40;;;;;;;13.50;6.93;;;;;-1.10;96796.00;;;;8339505;28;20730;-77
2023/12/03 10:21:49;;;;;;;20.30;10.30;;;;;-1.00;96802.00;;;;8339512;28;20282;-78
2023/12/03 10:25:52;;;;;;;18.60;9.47;;;;;-0.80;96803.00;;;;8345127;28;20204;-77
2023/12/03 10:29:55;;;;;;;19.03;9.70;;;;;-0.90;96800.00;;;;8339395;28;20966;-79
2023/12/03 10:34:00;;;;;;;17.43;9.67;;;;;-0.80;96800.00;;;;8342512;28;20304;-83
2023/12/03 10:38:07;;;;;;;17.07;8.87;;;;;-0.80;96804.00;;;;8339082;28;20200;-79
2023/12/03 10:42:11;;;;;;;21.07;10.03;;;;;-0.70;96797.00;;;;8342671;28;20201;-77
2023/12/03 10:46:14;;;;;;;19.00;9.97;;;;;-0.60;96793.00;;;;8349368;28;20224;-79
2023/12/03 10:50:22;;;;;;;22.77;10.90;;;;;-0.60;96797.00;;;;8342782;28;20209;-75
2023/12/03 10:54:26;;;;;;;23.67;10.80;;;;;-0.50;96795.00;;;;8342922;28;20708;-75
2023/12/03 10:58:31;;;;;;;18.17;8.60;;;;;-0.50;96788.00;;;;8340685;28;20650;-80
2023/12/03 11:02:40;;;;;;;19.87;9.83;;;;;-0.50;96797.00;;;;8342800;28;20323;-80
2023/12/03 11:06:49;;;;;;;21.20;10.70;;;;;-0.50;96802.00;;;;8343377;28;20287;-78
2023/12/03 11:10:53;;;;;;;19.57;10.73;;;;;-0.40;96801.00;;;;8343259;28;20407;-75
2023/12/03 11:14:59;;;;;;;21.57;10.33;;;;;-0.30;96795.00;;;;8343461;28;20204;-77
2023/12/03 11:19:12;;;;;;;22.80;11.80;;;;;-0.20;96791.00;;;;8337750;28;20270;-78
2023/12/03 11:23:38;;;;;;;18.40;9.60;;;;;-0.10;96803.00;;;;8333081;28;20251;-79
2023/12/03 11:27:42;;;;;;;21.50;10.43;;;;;-0.10;96801.00;;;;8336318;28;20236;-74
2023/12/03 11:31:45;;;;;;;22.00;10.67;;;;;0.00;96794.00;;;;8333777;28;20258;-77
2023/12/03 11:35:51;;;;;;;23.40;10.77;;;;;-0.10;96803.00;;;;8330394;28;20292;-74
2023/12/03 11:40:00;;;;;;;19.83;9.97;;;;;-0.10;96803.00;;;;8335082;28;20211;-75
2023/12/03 11:44:18;;;;;;;22.87;10.57;;;;;-0.10;96791.00;;;;8335402;28;20213;-77
2023/12/03 11:48:22;;;;;;;19.33;9.53;;;;;-0.20;96803.00;;;;8338033;28;20255;-73
2023/12/03 11:52:26;;;;;;;17.83;10.50;;;;;-0.20;96803.00;;;;8334193;28;20207;-74
2023/12/03 11:56:31;;;;;;;25.07;11.00;;;;;-0.10;96804.00;;;;8334034;28;20232;-71
2023/12/03 12:00:35;;;;;;;21.67;10.07;;;;;-0.10;96801.00;;;;8330677;28;20228;-75
2023/12/03 12:04:38;;;;;;;19.70;10.07;;;;;-0.20;96797.00;;;;8333549;28;20251;-75
2023/12/03 12:08:42;;;;;;;17.63;9.00;;;;;-0.30;96800.00;;;;8337838;28;20844;-73
2023/12/03 12:12:47;;;;;;;20.20;9.33;;;;;-0.40;96799.00;;;;8340999;28;20197;-75
2023/12/03 12:16:51;;;;;;;20.43;9.03;;;;;-0.40;96798.00;;;;8341287;28;20965;-74
2023/12/03 12:21:06;;;;;;;23.93;10.87;;;;;-0.40;96790.00;;;;8341788;28;20286;-74
2023/12/03 12:25:09;;;;;;;21.63;10.50;;;;;-0.30;96797.00;;;;8344177;28;20622;-75
2023/12/03 12:29:14;;;;;;;20.27;9.97;;;;;-0.40;96791.00;;;;8339863;28;20263;-75
2023/12/03 12:33:17;;;;;;;19.33;10.10;;;;;-0.30;96798.00;;;;8339222;28;20229;-73
2023/12/03 12:37:23;;;;;;;20.10;9.87;;;;;-0.30;96801.00;;;;8334468;28;20197;-74
2023/12/03 12:41:41;;;;;;;18.23;9.80;;;;;-0.20;96789.00;;;;8341725;28;20213;-74
2023/12/03 12:45:46;;;;;;;20.73;10.23;;;;;-0.20;96782.00;;;;8338143;28;20226;-74
2023/12/03 12:49:54;;;;;;;20.23;9.70;;;;;-0.10;96787.00;;;;8342292;28;20235;-74
2023/12/03 12:53:59;;;;;;;16.23;9.53;;;;;-0.10;96800.00;;;;8348929;28;20205;-76
2023/12/03 12:58:04;;;;;;;21.93;9.97;;;;;-0.10;96792.00;;;;8346938;28;20682;-73
2023/12/03 13:02:17;;;;;;;20.80;10.17;;;;;-0.10;96800.00;;;;8341567;28;20262;-72
2023/12/03 13:06:20;;;;;;;21.93;10.57;;;;;0.00;96803.00;;;;8323255;28;20244;-74
2023/12/03 13:10:24;;;;;;;24.80;9.73;;;;;0.10;96795.00;;;;8346091;28;20304;-74
2023/12/03 13:14:28;;;;;;;25.60;11.03;;;;;0.10;96796.00;;;;8341696;28;20380;-74
2023/12/03 13:18:33;;;;;;;23.27;10.87;;;;;0.20;96805.00;;;;8346572;28;20200;-75
2023/12/03 13:22:36;;;;;;;22.50;10.97;;;;;0.20;96805.00;;;;8339299;28;20205;-73
2023/12/03 13:26:39;;;;;;;22.73;10.73;;;;;0.30;96807.00;;;;8346608;28;20207;-74
2023/12/03 13:30:42;;;;;;;21.57;10.10;;;;;0.40;96802.00;;;;8348833;28;20316;-74
2023/12/03 13:34:47;;;;;;;21.33;10.33;;;;;0.50;96803.00;;;;8350238;28;20285;-75
2023/12/03 13:38:50;;;;;;;20.53;9.80;;;;;0.70;96805.00;;;;8348226;28;20285;-74
2023/12/03 13:42:53;;;;;;;18.80;9.13;;;;;0.50;96799.00;;;;8352450;28;20203;-75
2023/12/03 13:46:57;;;;;;;17.90;9.43;;;;;0.40;96803.00;;;;8347671;28;20292;-77
2023/12/03 13:51:02;;;;;;;18.47;8.83;;;;;0.40;96793.00;;;;8350881;28;20218;-76
2023/12/03 13:55:06;;;;;;;19.43;10.00;;;;;0.30;96797.00;;;;8350874;28;20227;-77
2023/12/03 13:59:10;;;;;;;29.47;14.30;;;;;0.10;96793.00;;;;8350185;28;20198;-76
2023/12/03 14:03:14;;;;;;;23.57;11.17;;;;;0.00;96788.00;;;;8348329;28;20228;-76
2023/12/03 14:07:18;;;;;;;17.50;9.93;;;;;-0.10;96790.00;;;;8350106;28;20896;-75
2023/12/03 14:11:21;;;;;;;19.90;10.07;;;;;-0.30;96793.00;;;;8343038;28;20226;-76
2023/12/03 14:15:25;;;;;;;19.20;9.93;;;;;-0.40;96788.00;;;;8346902;28;20698;-75
2023/12/03 14:19:28;;;;;;;19.57;10.00;;;;;-0.60;96788.00;;;;8346060;28;20251;-76
2023/12/03 14:23:33;;;;;;;20.83;9.90;;;;;-0.80;96798.00;;;;8348877;28;20811;-76
2023/12/03 14:27:36;;;;;;;20.50;10.17;;;;;-1.00;96804.00;;;;8350098;28;20280;-78
2023/12/03 14:31:39;;;;;;;16.90;9.27;;;;;-1.10;96790.00;;;;8348505;28;20295;-75
2023/12/03 14:35:42;;;;;;;21.77;10.10;;;;;-1.70;96801.00;;;;8347742;28;20259;-74
2023/12/03 14:39:47;;;;;;;21.97;10.80;;;;;-2.00;96808.00;;;;8349691;28;20292;-74
2023/12/03 14:43:51;;;;;;;17.83;9.53;;;;;-2.10;96809.00;;;;8344753;28;20206;-74
2023/12/03 14:47:55;;;;;;;18.33;9.03;;;;;-2.20;96817.00;;;;8350294;28;20399;-76
2023/12/03 14:51:58;;;;;;;17.27;8.93;;;;;-2.40;96825.00;;;;8347529;28;20286;-75
2023/12/03 14:56:03;;;;;;;20.00;9.23;;;;;-2.60;96822.00;;;;8347773;28;20251;-74
2023/12/03 15:00:11;;;;;;;17.13;8.87;;;;;-3.00;96818.00;;;;8345984;28;20201;-75
2023/12/03 15:04:14;;;;;;;22.73;10.40;;;;;-3.30;96814.00;;;;8345464;28;20431;-77
2023/12/03 15:08:17;;;;;;;26.20;11.23;;;;;-3.30;96806.00;;;;8332074;28;20568;-76
2023/12/03 15:12:22;;;;;;;22.13;10.70;;;;;-3.10;96817.00;;;;8339470;28;20324;-77
2023/12/03 15:16:26;;;;;;;25.47;12.17;;;;;-3.00;96805.00;;;;8340930;28;20279;-79
2023/12/03 15:20:29;;;;;;;27.47;12.00;;;;;-2.80;96806.00;;;;8344212;28;20197;-73
2023/12/03 15:24:34;;;;;;;25.23;12.20;;;;;-2.50;96802.00;;;;8343169;28;20570;-76
2023/12/03 15:28:38;;;;;;;34.37;14.73;;;;;-2.40;96806.00;;;;8344776;28;20197;-76
2023/12/03 15:32:42;;;;;;;29.50;12.70;;;;;-2.40;96812.00;;;;8343531;28;20228;-74
2023/12/03 15:36:48;;;;;;;26.30;11.50;;;;;-2.50;96821.00;;;;8338779;28;20197;-74
2023/12/03 15:40:53;;;;;;;29.37;12.43;;;;;-2.60;96819.00;;;;8336531;28;20594;-75
2023/12/03 15:44:58;;;;;;;28.23;12.03;;;;;-2.70;96824.00;;;;8341840;28;20848;-74
2023/12/03 15:49:01;;;;;;;27.30;12.63;;;;;-3.00;96830.00;;;;8343411;28;20897;-74
2023/12/03 15:53:15;;;;;;;21.40;10.73;;;;;-3.40;96829.00;;;;8341761;28;20203;-75
2023/12/03 15:57:18;;;;;;;26.50;11.73;;;;;-3.90;96826.00;;;;8348274;28;20297;-74
2023/12/03 16:01:23;;;;;;;25.37;10.03;;;;;-4.30;96830.00;;;;8340638;28;20200;-74
2023/12/03 16:05:26;;;;;;;27.97;12.67;;;;;-4.80;96830.00;;;;8344421;28;20220;-74
2023/12/03 16:09:29;;;;;;;27.87;11.73;;;;;-5.00;96826.00;;;;8337719;28;20220;-73
2023/12/03 16:13:34;;;;;;;25.50;12.27;;;;;-5.60;96822.00;;;;8337273;28;20207;-76
2023/12/03 16:17:40;;;;;;;26.43;11.90;;;;;-5.70;96817.00;;;;8362933;28;20199;-72
2023/12/03 16:21:43;;;;;;;26.73;11.73;;;;;-6.00;96825.00;;;;8363845;28;20196;-71
2023/12/03 16:25:46;;;;;;;22.33;9.53;;;;;-6.40;96822.00;;;;8363118;28;20196;-71
2023/12/03 16:29:49;;;;;;;30.13;12.00;;;;;-6.60;96822.00;;;;8364008;28;20248;-71
2023/12/03 16:33:54;;;;;;;32.17;13.03;;;;;-6.60;96822.00;;;;8364117;28;20507;-71
2023/12/03 16:37:57;;;;;;;31.07;12.40;;;;;-6.70;96827.00;;;;8363395;28;20227;-71
2023/12/03 16:42:00;;;;;;;24.47;11.33;;;;;-7.10;96823.00;;;;8363965;28;20587;-71
2023/12/03 16:46:04;;;;;;;35.20;13.50;;;;;-7.10;96820.00;;;;8364721;28;20238;-70
2023/12/03 16:50:14;;;;;;;33.63;13.17;;;;;-7.10;96840.00;;;;8364333;28;20245;-71
2023/12/03 16:54:17;;;;;;;29.20;12.47;;;;;-7.20;96841.00;;;;8363195;28;20204;-71
2023/12/03 16:58:21;;;;;;;25.70;11.47;;;;;-7.30;96850.00;;;;8363580;28;20239;-71
2023/12/03 17:02:24;;;;;;;5.97;3.17;;;;;-7.50;96844.00;;;;8363832;28;20696;-74
2023/12/03 17:06:33;;;;;;;37.07;14.60;;;;;-7.70;96841.00;;;;8362387;28;20200;-70
2023/12/03 17:10:36;;;;;;;30.30;11.20;;;;;-7.70;96835.00;;;;8364738;28;20212;-71
2023/12/03 17:14:40;;;;;;;27.73;12.03;;;;;-7.80;96838.00;;;;8364291;28;20659;-70
2023/12/03 17:18:44;;;;;;;32.73;11.87;;;;;-7.90;96830.00;;;;8363635;28;20744;-72
2023/12/03 17:22:48;;;;;;;19.97;8.47;;;;;-8.00;96829.00;;;;8363904;28;20196;-69
2023/12/03 17:26:54;;;;;;;3.50;3.20;;;;;-8.20;96834.00;;;;8363506;28;20790;-70
2023/12/03 17:30:57;;;;;;;24.33;9.53;;;;;-8.30;96824.00;;;;8363033;28;20306;-69
2023/12/03 17:35:01;;;;;;;24.77;12.03;;;;;-8.50;96821.00;;;;8365442;28;20572;-69
2023/12/03 17:39:06;;;;;;;33.90;13.57;;;;;-8.50;96830.00;;;;8369993;28;20217;-69
2023/12/03 17:43:11;;;;;;;23.70;9.87;;;;;-8.40;96836.00;;;;8369158;28;20191;-69
2023/12/03 17:47:14;;;;;;;34.27;12.80;;;;;-8.30;96830.00;;;;8368838;28;20231;-69
2023/12/03 17:51:17;;;;;;;31.87;12.60;;;;;-8.10;96831.00;;;;8367827;28;20336;-70
2023/12/03 17:55:23;;;;;;;36.17;15.33;;;;;-8.30;96816.00;;;;8368528;28;20289;-70
2023/12/03 17:59:27;;;;;;;27.83;11.90;;;;;-8.40;96825.00;;;;8368485;28;20183;-69
2023/12/03 18:03:34;;;;;;;36.03;13.03;;;;;-8.50;96827.00;;;;8368377;28;20218;-69
2023/12/03 18:07:37;;;;;;;31.37;11.87;;;;;-8.50;96844.00;;;;8370192;28;20460;-69
2023/12/03 18:11:45;;;;;;;23.67;11.80;;;;;-8.60;96838.00;;;;8367844;28;20229;-70
2023/12/03 18:15:50;;;;;;;19.33;6.43;;;;;-8.80;96850.00;;;;8368743;28;20183;-69
2023/12/03 18:19:53;;;;;;;41.37;13.63;;;;;-8.80;96847.00;;;;8367490;28;20264;-69
2023/12/03 18:23:56;;;;;;;20.97;7.00;;;;;-8.80;96864.00;;;;8366404;28;20198;-69
2023/12/03 18:28:00;;;;;;;36.43;13.90;;;;;-8.90;96858.00;;;;8368207;28;20654;-70
2023/12/03 18:32:04;;;;;;;32.37;12.63;;;;;-8.90;96849.00;;;;8366217;28;20276;-69
2023/12/03 18:36:13;;;;;;;17.37;7.93;;;;;-8.90;96846.00;;;;8367312;28;20530;-70
2023/12/03 18:40:16;;;;;;;7.83;4.27;;;;;-9.00;96847.00;;;;8366611;28;20182;-70
2023/12/03 18:44:26;;;;;;;33.90;12.97;;;;;-9.10;96835.00;;;;8365922;28;20234;-70
2023/12/03 18:48:32;;;;;;;38.03;11.50;;;;;-9.10;96831.00;;;;8365714;28;20232;-69
2023/12/03 18:52:35;;;;;;;28.97;10.97;;;;;-9.10;96836.00;;;;8366660;28;20656;-71
2023/12/03 18:56:40;;;;;;;35.73;11.43;;;;;-9.10;96841.00;;;;8366900;28;20279;-69
2023/12/03 19:00:44;;;;;;;31.27;12.73;;;;;-9.10;96841.00;;;;8366198;28;20209;-68
2023/12/03 19:04:47;;;;;;;26.27;11.80;;;;;-9.10;96842.00;;;;8366415;28;20222;-68
2023/12/03 19:08:51;;;;;;;29.63;9.97;;;;;-9.20;96829.00;;;;8364730;28;20234;-68
2023/12/03 19:12:54;;;;;;;22.87;9.17;;;;;-9.20;96831.00;;;;8365340;28;20220;-68
2023/12/03 19:17:08;;;;;;;34.00;13.00;;;;;-9.10;96831.00;;;;8365113;28;20180;-69
2023/12/03 19:21:12;;;;;;;33.73;12.87;;;;;-8.90;96838.00;;;;8365744;28;20229;-68
2023/12/03 19:25:15;;;;;;;22.20;8.47;;;;;-8.90;96824.00;;;;8366143;28;20226;-68
2023/12/03 19:29:18;;;;;;;34.47;11.80;;;;;-8.90;96818.00;;;;8366943;28;20195;-68
2023/12/03 19:33:23;;;;;;;41.87;14.60;;;;;-8.80;96816.00;;;;8365432;28;20238;-68
2023/12/03 19:37:26;;;;;;;35.33;13.97;;;;;-8.60;96821.00;;;;8366348;28;20526;-68
2023/12/03 19:41:31;;;;;;;35.73;14.00;;;;;-8.40;96823.00;;;;8367027;28;20291;-69
2023/12/03 19:45:34;;;;;;;40.03;15.87;;;;;-8.10;96827.00;;;;8365203;28;20201;-69
2023/12/03 19:49:39;;;;;;;32.03;14.20;;;;;-8.10;96825.00;;;;8365619;28;20578;-69
2023/12/03 19:53:45;;;;;;;34.53;12.80;;;;;-7.90;96812.00;;;;8365252;28;20298;-70
2023/12/03 19:57:49;;;;;;;35.23;13.23;;;;;-7.80;96804.00;;;;8364491;28;20185;-69
2023/12/03 20:01:53;;;;;;;29.60;12.03;;;;;-8.10;96805.00;;;;8364844;28;20248;-70
2023/12/03 20:05:58;;;;;;;34.83;13.63;;;;;-8.40;96803.00;;;;8365259;28;20645;-70